Time;durP1;ratioP1;P1;durP2;ratioP2;P2;SDS_P1;SDS_P2;PMS_P1;PMS_P2;Temp;Humidity;BMP_temperature;BMP_pressure;BME280_temperature;BME280_humidity;BME280_pressure;Samples;Min_cycle;Max_cycle;Signal;HPM_P1;HPM_P2
2022/12/06 00:01:35;;;;;;;90.57;42.62;;;;;;;4.10;93.49;98640.11;1700474;84;25550;-70
2022/12/06 00:04:03;;;;;;;79.58;36.25;;;;;;;4.13;93.43;98644.46;1698441;83;25676;-69
2022/12/06 00:06:32;;;;;;;72.32;33.48;;;;;;;4.14;93.28;98639.30;1700568;83;25453;-69
2022/12/06 00:08:59;;;;;;;78.22;37.00;;;;;;;4.14;93.25;98639.30;1700164;83;27798;-69
2022/12/06 00:11:32;;;;;;;74.20;33.67;;;;;;;4.16;93.46;98627.36;1700089;83;25635;-70
2022/12/06 00:14:02;;;;;;;78.15;35.35;;;;;;;4.18;93.49;98624.66;1699988;84;25654;-71
2022/12/06 00:16:29;;;;;;;73.65;37.17;;;;;;;4.19;93.56;98625.45;1700496;84;26039;-71
2022/12/06 00:18:57;;;;;;;74.85;35.35;;;;;;;4.21;93.89;98621.41;1700336;84;25606;-69
2022/12/06 00:21:28;;;;;;;66.70;30.35;;;;;;;4.22;93.75;98616.78;1700217;84;27416;-68
2022/12/06 00:24:01;;;;;;;80.62;35.88;;;;;;;4.17;93.71;98612.73;1700136;83;25677;-69
2022/12/06 00:26:29;;;;;;;75.17;36.28;;;;;;;4.15;94.00;98608.94;1700246;83;25650;-70
2022/12/06 00:28:59;;;;;;;66.30;31.23;;;;;;;4.14;94.38;98601.86;1700290;83;26236;-71
2022/12/06 00:31:28;;;;;;;80.38;40.55;;;;;;;4.11;94.53;98596.45;1700229;83;25716;-72
2022/12/06 00:33:54;;;;;;;81.20;39.73;;;;;;;4.04;94.58;98587.78;1700419;83;27376;-72
2022/12/06 00:36:28;;;;;;;79.60;37.90;;;;;;;4.01;94.82;98581.55;1700232;83;25503;-71
2022/12/06 00:38:54;;;;;;;57.43;25.62;;;;;;;3.97;95.08;98572.34;1700321;83;25448;-70
2022/12/06 00:41:24;;;;;;;56.65;27.95;;;;;;;3.91;95.44;98574.21;1700288;84;26065;-71
2022/12/06 00:43:51;;;;;;;51.58;25.95;;;;;;;3.88;95.60;98573.40;1700415;83;25500;-70
2022/12/06 00:46:22;;;;;;;46.80;21.60;;;;;;;3.86;95.88;98572.88;1700241;84;27394;-70
2022/12/06 00:49:00;;;;;;;50.85;23.12;;;;;;;3.86;96.13;98572.88;1700350;84;25665;-70
2022/12/06 00:51:34;;;;;;;49.88;24.75;;;;;;;3.82;96.36;98563.11;1699809;83;25610;-71
2022/12/06 00:54:09;;;;;;;44.48;22.30;;;;;;;3.82;96.46;98563.64;1700063;84;26013;-74
2022/12/06 00:56:36;;;;;;;44.93;23.27;;;;;;;3.85;96.66;98561.21;1680525;84;25486;-75
2022/12/06 00:59:03;;;;;;;48.00;22.77;;;;;;;3.89;96.65;98560.14;1700316;84;27327;-78
2022/12/06 01:01:32;;;;;;;46.83;22.35;;;;;;;3.95;96.90;98562.30;1700195;84;25420;-78
2022/12/06 01:04:02;;;;;;;51.00;23.75;;;;;;;4.00;96.72;98556.88;1700052;84;25423;-83
2022/12/06 01:06:32;;;;;;;43.92;22.55;;;;;;;4.07;96.72;98554.70;1700455;84;32359;-85
2022/12/06 01:09:04;;;;;;;44.00;21.35;;;;;;;4.09;96.56;98545.72;1700450;84;25434;-78
2022/12/06 01:11:31;;;;;;;42.80;21.42;;;;;;;4.09;96.58;98543.58;1700348;84;27553;-76
2022/12/06 01:13:57;;;;;;;39.30;19.90;;;;;;;4.11;96.79;98540.85;1700275;84;25780;-78
2022/12/06 01:16:27;;;;;;;42.60;21.35;;;;;;;4.13;96.80;98536.51;1700289;84;25697;-83
2022/12/06 01:18:57;;;;;;;37.33;19.37;;;;;;;4.13;96.74;98527.84;1700361;84;26132;-85
2022/12/06 01:21:25;;;;;;;35.47;18.70;;;;;;;4.13;96.67;98531.08;1700629;84;25680;-85
2022/12/06 01:23:53;;;;;;;36.93;18.48;;;;;;;4.13;96.83;98533.27;1700309;84;27482;-83
2022/12/06 01:26:27;;;;;;;39.30;19.52;;;;;;;4.14;97.05;98525.39;1699938;84;25428;-81
2022/12/06 01:28:54;;;;;;;42.03;19.65;;;;;;;4.10;96.99;98523.50;1700036;83;25508;-80
2022/12/06 01:31:21;;;;;;;36.17;15.18;;;;;;;4.08;97.16;98514.27;1700343;84;26043;-80
2022/12/06 01:33:47;;;;;;;38.85;18.00;;;;;;;4.08;97.30;98520.23;1700393;84;25606;-79
2022/12/06 01:36:20;;;;;;;42.30;22.27;;;;;;;4.07;97.28;98506.41;1700472;84;28075;-79
2022/12/06 01:38:53;;;;;;;39.30;19.35;;;;;;;4.08;97.19;98507.50;1700110;84;25805;-77
2022/12/06 01:41:21;;;;;;;39.60;19.10;;;;;;;4.09;97.21;98514.53;1700251;84;25775;-78
2022/12/06 01:43:48;;;;;;;44.05;21.12;;;;;;;4.09;97.23;98513.74;1700250;84;26010;-78
2022/12/06 01:46:34;;;;;;;45.00;23.75;;;;;;;4.12;97.32;98507.77;1700273;84;25720;-78
2022/12/06 01:49:15;;;;;;;42.93;20.48;;;;;;;4.15;97.03;98504.52;1700472;84;27035;-78
2022/12/06 01:51:55;;;;;;;47.80;23.45;;;;;;;4.13;97.03;98506.14;1705553;83;25490;-77
2022/12/06 01:54:23;;;;;;;46.37;23.60;;;;;;;4.10;96.99;98489.06;1708162;83;25625;-79
2022/12/06 01:56:52;;;;;;;47.05;23.92;;;;;;;4.08;97.00;98480.91;1709749;83;26155;-79
2022/12/06 01:59:20;;;;;;;51.42;24.27;;;;;;;4.07;96.96;98469.80;1710497;83;25436;-78
2022/12/06 02:01:47;;;;;;;44.95;24.02;;;;;;;4.04;97.06;98464.39;1710413;83;27426;-79
2022/12/06 02:04:16;;;;;;;51.15;25.68;;;;;;;4.01;97.11;98461.67;1710406;83;25443;-78
2022/12/06 02:06:43;;;;;;;49.55;24.72;;;;;;;4.06;97.33;98462.77;1710437;83;25617;-76
2022/12/06 02:09:11;;;;;;;46.75;22.77;;;;;;;4.12;97.29;98470.59;1710465;83;26718;-78
2022/12/06 02:11:39;;;;;;;70.80;39.50;;;;;;;4.14;97.06;98461.65;1710547;83;25641;-78
2022/12/06 02:14:10;;;;;;;35.92;18.05;;;;;;;4.15;96.99;98461.12;1710396;83;27477;-78
2022/12/06 02:17:04;;;;;;;51.45;25.08;;;;;;;4.16;96.90;98459.20;1710364;83;25471;-79
2022/12/06 02:20:03;;;;;;;42.78;21.33;;;;;;;4.16;96.97;98452.41;1710320;83;25589;-78
2022/12/06 02:22:41;;;;;;;50.78;24.80;;;;;;;4.10;96.93;98451.63;1709929;83;25979;-79
2022/12/06 02:25:28;;;;;;;50.80;23.57;;;;;;;4.05;97.11;98443.50;1710674;83;25443;-79
2022/12/06 02:28:11;;;;;;;51.95;26.42;;;;;;;4.01;97.08;98444.05;1710150;83;27472;-80
2022/12/06 02:30:55;;;;;;;48.05;22.22;;;;;;;4.01;97.17;98436.47;1709179;83;25483;-78
2022/12/06 02:33:30;;;;;;;44.42;18.92;;;;;;;4.01;97.18;98432.41;1710712;83;25582;-78
2022/12/06 02:36:18;;;;;;;48.23;20.77;;;;;;;3.97;97.26;98429.98;1709498;83;26067;-79
2022/12/06 02:38:58;;;;;;;56.28;25.57;;;;;;;3.94;97.47;98419.12;1710396;83;25674;-79
2022/12/06 02:41:54;;;;;;;55.25;23.83;;;;;;;3.95;97.45;98403.69;1710546;83;27448;-79
2022/12/06 02:44:34;;;;;;;55.43;26.10;;;;;;;3.97;97.51;98407.73;1709684;83;25819;-78
2022/12/06 02:47:03;;;;;;;65.97;31.17;;;;;;;3.95;97.38;98403.15;1708097;83;32220;-78
2022/12/06 02:49:32;;;;;;;59.50;29.15;;;;;;;3.94;97.54;98399.36;1710570;83;25992;-78
2022/12/06 02:51:59;;;;;;;66.95;30.97;;;;;;;3.95;97.54;98403.69;1717455;83;25613;-77
2022/12/06 02:54:28;;;;;;;69.70;31.73;;;;;;;3.96;97.61;98409.36;1718628;83;27399;-79
2022/12/06 02:56:54;;;;;;;64.55;30.90;;;;;;;3.99;97.51;98414.23;1718389;83;25642;-77
2022/12/06 02:59:20;;;;;;;69.90;31.17;;;;;;;4.06;97.62;98412.59;1718605;83;25692;-77
2022/12/06 03:01:55;;;;;;;67.55;32.58;;;;;;;4.07;97.50;98408.25;1718559;83;26745;-77
2022/12/06 03:04:47;;;;;;;61.48;29.35;;;;;;;4.09;97.45;98399.28;1718616;83;25617;-77
2022/12/06 03:07:35;;;;;;;65.57;31.40;;;;;;;4.08;97.37;98401.73;1718292;83;27421;-77
2022/12/06 03:10:43;;;;;;;92.80;39.38;;;;;;;4.06;97.54;98405.25;1718124;83;25632;-76
2022/12/06 03:13:27;;;;;;;90.85;40.70;;;;;;;4.05;97.53;98413.13;1718241;83;25497;-76
2022/12/06 03:16:13;;;;;;;74.35;33.02;;;;;;;4.12;97.78;98420.98;1718511;83;26081;-76
2022/12/06 03:18:49;;;;;;;66.07;32.30;;;;;;;4.18;97.64;98426.66;1718195;83;25700;-77
2022/12/06 03:21:27;;;;;;;76.37;34.70;;;;;;;4.25;97.55;98432.59;1718445;83;27467;-73
2022/12/06 03:23:54;;;;;;;69.62;32.98;;;;;;;4.33;97.51;98435.28;1717540;83;25597;-73
2022/12/06 03:26:25;;;;;;;71.80;33.55;;;;;;;4.40;97.45;98430.89;1718409;83;25697;-73
2022/12/06 03:28:54;;;;;;;68.50;32.42;;;;;;;4.39;96.65;98419.25;1718446;83;26144;-74
2022/12/06 03:31:24;;;;;;;65.97;31.35;;;;;;;4.40;96.77;98426.82;1718190;83;25510;-73
2022/12/06 03:34:08;;;;;;;76.57;35.25;;;;;;;4.42;96.90;98430.08;1718464;83;27532;-72
2022/12/06 03:36:36;;;;;;;73.40;33.73;;;;;;;4.48;97.15;98430.33;1611952;88;25985;-71
2022/12/06 03:39:06;;;;;;;73.60;34.18;;;;;;;4.52;97.23;98434.09;1612428;89;25693;-72
2022/12/06 03:41:44;;;;;;;64.07;31.48;;;;;;;4.58;97.16;98428.66;1612409;89;26124;-71
2022/12/06 03:44:10;;;;;;;67.70;31.60;;;;;;;4.57;97.04;98429.19;1612354;88;25562;-73
2022/12/06 03:46:42;;;;;;;61.42;30.45;;;;;;;4.58;96.87;98419.94;1612512;89;27568;-74
2022/12/06 03:49:16;;;;;;;62.83;29.12;;;;;;;4.50;96.32;98413.23;1612356;89;25800;-74
2022/12/06 03:51:44;;;;;;;55.60;27.90;;;;;;;4.49;96.64;98404.80;1607713;88;25574;-76
2022/12/06 03:54:10;;;;;;;55.92;26.23;;;;;;;4.47;96.24;98404.29;1605359;89;26111;-76
2022/12/06 03:56:38;;;;;;;49.60;23.67;;;;;;;4.40;95.95;98405.11;1605503;89;25686;-76
2022/12/06 03:59:07;;;;;;;62.05;29.60;;;;;;;4.33;96.11;98398.66;1605481;89;27496;-77
2022/12/06 04:01:33;;;;;;;62.25;28.83;;;;;;;4.29;96.31;98384.00;1605433;89;25521;-76
2022/12/06 04:04:00;;;;;;;65.85;30.02;;;;;;;4.27;96.47;98388.34;1605502;89;25758;-77
2022/12/06 04:06:26;;;;;;;64.00;30.27;;;;;;;4.25;96.59;98388.38;1605445;89;26655;-74
2022/12/06 04:09:50;;;;;;;52.95;26.97;;;;;;;4.25;96.79;98386.48;1605522;89;25577;-73
2022/12/06 04:11:24;;;;;;;54.00;26.90;;;;;;;4.27;96.70;98381.56;1605211;89;26814;-72
2022/12/06 04:13:50;;;;;;;50.58;26.73;;;;;;;4.29;96.61;98387.28;1660939;83;25829;-71
2022/12/06 04:19:00;;;;;;;53.23;26.68;;;;;;;4.31;96.72;98376.41;1710382;83;25748;-69
2022/12/06 04:24:01;;;;;;;56.70;28.52;;;;;;;4.44;97.19;98379.60;1710557;83;25789;-67
2022/12/06 04:26:28;;;;;;;61.68;31.65;;;;;;;4.49;97.04;98385.80;1710164;83;25566;-67
2022/12/06 04:39:56;;;;;;;61.60;30.95;;;;;;;4.22;97.73;98378.90;1710118;83;25819;-66
2022/12/06 04:45:09;;;;;;;59.85;29.25;;;;;;;4.29;97.64;98375.07;1710124;83;25612;-66
2022/12/06 04:47:36;;;;;;;48.65;25.27;;;;;;;4.24;97.22;98368.59;1710481;83;25668;-67
2022/12/06 04:50:05;;;;;;;40.23;21.35;;;;;;;4.18;97.32;98358.03;1710367;83;27428;-67
2022/12/06 04:52:31;;;;;;;39.10;22.30;;;;;;;4.17;97.59;98364.56;1706052;83;25764;-68
2022/12/06 04:54:58;;;;;;;42.83;22.70;;;;;;;4.16;97.70;98355.59;1705545;84;25689;-67
2022/12/06 04:57:24;;;;;;;45.52;23.98;;;;;;;4.20;97.73;98350.44;1705515;84;26025;-68
2022/12/06 04:59:51;;;;;;;42.13;23.55;;;;;;;4.22;97.60;98358.55;1705639;84;25491;-68
2022/12/06 05:02:18;;;;;;;46.83;24.65;;;;;;;4.26;97.80;98350.68;1706040;84;27494;-66
2022/12/06 05:04:44;;;;;;;50.58;25.65;;;;;;;4.31;97.85;98352.53;1705868;84;25804;-67
2022/12/06 05:07:10;;;;;;;42.60;20.95;;;;;;;4.33;97.66;98353.89;1705627;83;25670;-67
2022/12/06 05:09:37;;;;;;;37.17;20.48;;;;;;;4.34;97.49;98356.04;1705508;84;26070;-68
2022/12/06 05:12:04;;;;;;;46.02;24.37;;;;;;;4.32;97.48;98358.23;1705616;84;25677;-67
2022/12/06 05:14:31;;;;;;;43.83;24.00;;;;;;;4.25;97.59;98356.64;1705656;84;27490;-67
2022/12/06 05:16:58;;;;;;;47.48;23.95;;;;;;;4.26;98.03;98346.61;1705493;83;25681;-70
2022/12/06 05:19:24;;;;;;;48.85;25.45;;;;;;;4.25;97.91;98342.26;1705562;84;25769;-71
2022/12/06 05:21:51;;;;;;;47.30;24.82;;;;;;;4.31;98.04;98351.17;1705479;84;26466;-71
2022/12/06 05:24:22;;;;;;;39.00;22.60;;;;;;;4.35;97.92;98348.98;1705958;84;25666;-72
2022/12/06 05:26:49;;;;;;;44.70;22.98;;;;;;;4.35;97.49;98338.69;1705807;84;27326;-72
2022/12/06 05:29:16;;;;;;;44.60;23.10;;;;;;;4.35;97.31;98334.05;1705507;84;25696;-72
2022/12/06 05:31:42;;;;;;;44.08;23.38;;;;;;;4.35;97.48;98344.91;1705590;84;25496;-72
2022/12/06 05:34:10;;;;;;;53.48;27.82;;;;;;;4.41;97.77;98343.00;1705536;84;26145;-73
2022/12/06 05:36:36;;;;;;;51.15;25.92;;;;;;;4.45;97.94;98353.55;1705918;84;25678;-73
2022/12/06 05:39:03;;;;;;;49.53;27.22;;;;;;;4.46;97.87;98345.66;1705576;84;27480;-72
2022/12/06 05:41:29;;;;;;;43.10;23.30;;;;;;;4.43;97.54;98336.72;1705569;84;25976;-71
2022/12/06 05:43:55;;;;;;;51.37;26.52;;;;;;;4.36;97.46;98340.30;1705983;84;25445;-71
2022/12/06 05:46:22;;;;;;;49.48;26.10;;;;;;;4.35;97.85;98343.55;1705959;84;25982;-72
2022/12/06 05:48:48;;;;;;;51.08;26.62;;;;;;;4.38;97.88;98342.99;1705895;84;25506;-72
2022/12/06 05:51:14;;;;;;;43.20;24.35;;;;;;;4.41;97.67;98338.11;1705702;84;27352;-72
2022/12/06 05:53:41;;;;;;;47.55;26.02;;;;;;;4.44;97.60;98332.12;1705806;84;25424;-72
2022/12/06 05:56:10;;;;;;;42.98;22.37;;;;;;;4.47;97.44;98341.88;1705576;84;25648;-72
2022/12/06 05:58:37;;;;;;;47.80;24.25;;;;;;;4.48;97.27;98334.53;1705832;84;26066;-72
2022/12/06 06:01:06;;;;;;;62.20;30.55;;;;;;;4.54;97.57;98336.66;1706106;84;25495;-72
2022/12/06 06:03:33;;;;;;;56.75;29.00;;;;;;;4.62;97.73;98330.64;1705887;84;27410;-72
2022/12/06 06:06:00;;;;;;;51.05;27.15;;;;;;;4.68;97.65;98328.16;1705813;84;25626;-71
2022/12/06 06:08:28;;;;;;;51.80;27.22;;;;;;;4.71;97.31;98327.59;1705930;84;25660;-71
2022/12/06 06:10:55;;;;;;;47.65;24.67;;;;;;;4.71;97.24;98327.59;1705952;84;26035;-71
2022/12/06 06:13:22;;;;;;;47.88;28.47;;;;;;;4.66;96.79;98323.55;1705967;84;25435;-71
2022/12/06 06:15:48;;;;;;;54.67;29.98;;;;;;;4.65;97.00;98328.72;1706063;84;27414;-71
2022/12/06 06:18:16;;;;;;;51.18;28.27;;;;;;;4.57;96.56;98323.34;1705781;84;25528;-71
2022/12/06 06:20:54;;;;;;;45.03;24.65;;;;;;;4.50;96.49;98312.83;1705734;84;25444;-71
2022/12/06 06:23:21;;;;;;;46.75;27.00;;;;;;;4.39;96.25;98316.68;1685779;84;26095;-71
2022/12/06 06:25:47;;;;;;;38.60;20.02;;;;;;;4.32;96.56;98310.20;1706040;84;25491;-72
2022/12/06 06:28:14;;;;;;;49.50;27.10;;;;;;;4.27;96.59;98308.89;1705980;84;27528;-72
2022/12/06 06:30:40;;;;;;;49.45;25.88;;;;;;;4.25;96.85;98306.99;1706051;84;25471;-73
2022/12/06 06:33:06;;;;;;;50.05;27.32;;;;;;;4.27;96.96;98309.69;1706140;84;25725;-72
2022/12/06 06:35:32;;;;;;;30.37;15.15;;;;;;;4.31;96.95;98305.88;1705965;84;26861;-73
2022/12/06 06:37:59;;;;;;;50.65;27.52;;;;;;;4.32;96.80;98302.63;1706005;84;25458;-74
2022/12/06 06:40:27;;;;;;;48.78;25.95;;;;;;;4.27;96.73;98293.41;1705973;84;28179;-73
2022/12/06 06:42:54;;;;;;;42.90;23.98;;;;;;;4.30;96.85;98296.66;1705572;84;25474;-73
2022/12/06 06:45:21;;;;;;;47.03;25.05;;;;;;;4.32;96.76;98289.06;1705875;84;25445;-73
2022/12/06 06:47:47;;;;;;;45.85;24.23;;;;;;;4.35;96.90;98285.22;1705859;84;25934;-73
2022/12/06 06:50:13;;;;;;;44.42;23.83;;;;;;;4.39;96.62;98289.55;1706147;84;25864;-73
2022/12/06 06:52:40;;;;;;;45.38;24.45;;;;;;;4.37;96.54;98292.55;1708842;83;28102;-73
2022/12/06 06:55:08;;;;;;;51.08;24.85;;;;;;;4.36;96.61;98286.86;1710427;83;25768;-73
2022/12/06 06:57:35;;;;;;;46.73;25.95;;;;;;;4.33;96.65;98275.75;1710618;83;25669;-74
2022/12/06 07:00:04;;;;;;;47.98;24.65;;;;;;;4.27;96.56;98273.63;1710275;83;26032;-74
2022/12/06 07:02:30;;;;;;;48.73;26.00;;;;;;;4.25;96.66;98281.23;1710639;83;25455;-74
2022/12/06 07:04:56;;;;;;;46.75;25.00;;;;;;;4.24;96.64;98277.72;1710593;83;27357;-74
2022/12/06 07:07:23;;;;;;;45.45;24.90;;;;;;;4.21;96.47;98271.50;1710106;83;25668;-74
2022/12/06 07:09:49;;;;;;;56.77;28.75;;;;;;;4.25;96.63;98273.09;1710596;83;25733;-73
2022/12/06 07:12:15;;;;;;;53.17;27.73;;;;;;;4.25;96.54;98277.98;1710479;83;26792;-73
2022/12/06 07:14:42;;;;;;;48.55;27.05;;;;;;;4.30;96.76;98281.20;1710619;83;25440;-73
2022/12/06 07:17:08;;;;;;;46.20;25.77;;;;;;;4.37;96.88;98274.09;1710482;83;27417;-73
2022/12/06 07:19:34;;;;;;;60.65;29.80;;;;;;;4.41;96.71;98283.84;1710586;83;25637;-73
2022/12/06 07:22:01;;;;;;;53.63;28.73;;;;;;;4.48;96.87;98283.80;1710620;83;25491;-73
2022/12/06 07:24:28;;;;;;;46.65;24.20;;;;;;;4.53;96.47;98291.09;1710536;83;26787;-73
2022/12/06 07:26:56;;;;;;;47.48;25.55;;;;;;;4.48;95.90;98281.61;1710509;83;25427;-72
2022/12/06 07:29:22;;;;;;;50.63;26.45;;;;;;;4.37;95.75;98279.52;1710299;83;26876;-72
2022/12/06 07:31:48;;;;;;;46.05;23.22;;;;;;;4.33;96.17;98282.00;1710393;83;25716;-72
2022/12/06 07:34:15;;;;;;;58.33;29.82;;;;;;;4.30;96.19;98281.73;1710642;83;25652;-72
2022/12/06 07:36:41;;;;;;;56.92;29.23;;;;;;;4.28;96.35;98275.24;1710226;83;26095;-72
2022/12/06 07:39:08;;;;;;;75.22;36.85;;;;;;;4.30;96.31;98279.03;1704035;82;25700;-72
2022/12/06 07:47:04;;;;;;;52.17;28.45;;;;;;;4.44;95.97;98277.85;1710216;83;25597;-72
2022/12/06 07:49:30;;;;;;;64.90;34.80;;;;;;;4.43;95.89;98276.24;1710460;83;26793;-73
2022/12/06 07:51:57;;;;;;;57.17;28.85;;;;;;;4.48;96.48;98284.33;1712480;83;25430;-73
2022/12/06 07:54:24;;;;;;;64.40;31.73;;;;;;;4.54;96.38;98281.02;1717973;83;27403;-73
2022/12/06 07:56:50;;;;;;;62.88;32.42;;;;;;;4.59;96.77;98281.81;1718301;83;25459;-73
2022/12/06 07:59:17;;;;;;;54.35;28.77;;;;;;;4.69;96.70;98286.91;1718489;83;25644;-73
2022/12/06 08:01:43;;;;;;;44.35;24.50;;;;;;;4.66;96.13;98281.47;1718405;83;26046;-73
2022/12/06 08:04:10;;;;;;;61.20;32.40;;;;;;;4.64;96.14;98276.89;1718516;83;25471;-73
2022/12/06 08:06:37;;;;;;;55.23;29.77;;;;;;;4.62;95.93;98283.14;1718475;83;27403;-73
2022/12/06 08:09:04;;;;;;;52.35;27.73;;;;;;;4.63;96.13;98284.22;1717985;83;25688;-73
2022/12/06 08:11:31;;;;;;;54.77;28.00;;;;;;;4.64;95.99;98274.18;1718453;83;25431;-73
2022/12/06 08:13:57;;;;;;;49.88;27.00;;;;;;;4.71;96.16;98276.55;1718368;83;26949;-73
2022/12/06 08:16:24;;;;;;;57.43;27.35;;;;;;;4.72;95.61;98279.55;1718487;83;25455;-73
2022/12/06 08:18:51;;;;;;;49.77;26.15;;;;;;;4.72;95.65;98279.55;1718449;83;27307;-73
2022/12/06 08:21:17;;;;;;;55.12;28.52;;;;;;;4.70;95.35;98285.27;1718008;83;26016;-73
2022/12/06 08:23:44;;;;;;;59.70;29.23;;;;;;;4.71;95.58;98281.98;1718259;83;25490;-73
2022/12/06 08:26:14;;;;;;;50.78;24.75;;;;;;;4.76;95.73;98286.02;1718041;83;26651;-73
2022/12/06 08:28:42;;;;;;;73.47;35.30;;;;;;;4.73;95.40;98283.88;1718385;83;25601;-73
2022/12/06 08:31:13;;;;;;;62.40;29.85;;;;;;;4.68;95.26;98288.80;1718183;83;27526;-73
2022/12/06 08:33:39;;;;;;;61.65;29.77;;;;;;;4.63;95.43;98286.93;1718598;83;25603;-73
2022/12/06 08:36:15;;;;;;;68.85;32.90;;;;;;;4.60;95.42;98282.06;1718207;83;25446;-72
2022/12/06 08:38:42;;;;;;;67.12;32.65;;;;;;;4.58;95.77;98279.38;1716092;83;26449;-71
2022/12/06 08:41:54;;;;;;;61.63;31.73;;;;;;;4.56;95.88;98286.98;1718473;83;25677;-71
2022/12/06 08:43:37;;;;;;;60.17;31.82;;;;;;;4.52;95.77;98284.84;1714981;83;25915;-72
2022/12/06 08:46:04;;;;;;;60.28;31.95;;;;;;;4.51;95.87;98279.16;1713199;83;25909;-71
2022/12/06 08:48:30;;;;;;;69.30;34.95;;;;;;;4.57;96.03;98278.56;1710511;83;25507;-71
2022/12/06 08:51:03;;;;;;;73.78;36.98;;;;;;;4.58;95.94;98272.59;1710538;83;25980;-71
2022/12/06 08:53:29;;;;;;;67.87;32.63;;;;;;;4.62;95.92;98280.43;1716185;83;25592;-71
2022/12/06 08:55:56;;;;;;;71.10;36.20;;;;;;;4.71;96.28;98273.84;1718463;83;27220;-71
2022/12/06 08:58:22;;;;;;;69.15;34.67;;;;;;;4.80;96.34;98285.70;1718342;83;25681;-71
2022/12/06 09:01:02;;;;;;;69.75;35.35;;;;;;;4.86;96.09;98284.57;1718482;83;25605;-70
2022/12/06 09:03:27;;;;;;;65.97;33.83;;;;;;;4.90;96.00;98273.96;1717546;83;25680;-70
2022/12/06 09:05:53;;;;;;;67.85;33.73;;;;;;;4.94;95.84;98270.11;1718428;83;25661;-70
2022/12/06 09:08:19;;;;;;;60.67;29.92;;;;;;;4.94;95.58;98272.82;1718292;83;28268;-70
2022/12/06 09:10:46;;;;;;;62.15;30.85;;;;;;;4.97;95.57;98275.79;1718240;83;25593;-70
2022/12/06 09:13:12;;;;;;;62.67;30.20;;;;;;;4.95;95.49;98271.18;1718536;83;25447;-69
2022/12/06 09:15:38;;;;;;;71.50;33.90;;;;;;;4.95;95.49;98267.67;1718376;83;25668;-70
2022/12/06 09:18:05;;;;;;;68.75;31.52;;;;;;;4.95;95.51;98263.60;1718392;83;25728;-70
2022/12/06 09:20:31;;;;;;;59.63;31.12;;;;;;;4.90;95.49;98263.09;1718360;83;27404;-70
2022/12/06 09:22:57;;;;;;;55.10;27.27;;;;;;;4.85;95.29;98261.23;1718467;83;25655;-70
2022/12/06 09:25:24;;;;;;;29.37;14.78;;;;;;;4.83;95.26;98265.31;1718456;83;25637;-69
2022/12/06 09:27:50;;;;;;;24.70;12.58;;;;;;;4.72;94.66;98264.62;1725113;82;26084;-69
2022/12/06 09:30:17;;;;;;;18.67;10.08;;;;;;;4.66;94.82;98269.26;1692610;82;25679;-70
2022/12/06 09:32:44;;;;;;;21.60;11.20;;;;;;;4.60;94.70;98264.43;1725499;82;27461;-70
2022/12/06 09:35:10;;;;;;;22.60;11.88;;;;;;;4.60;95.10;98263.61;1725779;82;25752;-70
2022/12/06 09:37:37;;;;;;;22.07;12.90;;;;;;;4.61;95.28;98260.61;1718631;83;25660;-70
2022/12/06 09:40:17;;;;;;;23.42;11.90;;;;;;;4.61;95.27;98261.97;1718199;83;26072;-69
2022/12/06 09:43:29;;;;;;;20.95;12.13;;;;;;;4.60;95.15;98250.03;1718749;83;25478;-70
2022/12/06 09:46:25;;;;;;;13.70;6.62;;;;;;;4.53;94.69;98251.73;1718239;83;27420;-69
2022/12/06 09:49:19;;;;;;;10.82;6.40;;;;;;;4.42;94.44;98256.43;1718019;83;27212;-70
2022/12/06 09:52:07;;;;;;;12.23;6.87;;;;;;;4.33;94.43;98250.80;1715374;83;25596;-69
2022/12/06 09:55:11;;;;;;;16.48;8.65;;;;;;;4.20;94.20;98244.66;1718184;83;26064;-69
2022/12/06 09:57:59;;;;;;;11.22;6.47;;;;;;;4.14;94.55;98254.71;1717796;83;25483;-70
2022/12/06 10:00:31;;;;;;;8.33;5.92;;;;;;;4.11;94.26;98240.36;1718361;83;27424;-69
2022/12/06 10:03:29;;;;;;;10.68;6.83;;;;;;;4.04;93.83;98243.40;1717895;83;25617;-69
2022/12/06 10:06:01;;;;;;;10.30;5.55;;;;;;;3.97;93.56;98244.27;1718445;83;25680;-69
2022/12/06 10:08:55;;;;;;;14.30;8.55;;;;;;;3.93;93.90;98236.40;1718515;83;26107;-69
2022/12/06 10:11:52;;;;;;;11.30;7.03;;;;;;;3.92;93.87;98232.91;1717652;83;25600;-69
2022/12/06 10:14:49;;;;;;;14.25;8.88;;;;;;;3.93;94.09;98239.94;1718422;83;27723;-69
2022/12/06 10:17:26;;;;;;;15.03;9.58;;;;;;;3.96;93.93;98235.31;1718602;83;25664;-69
2022/12/06 10:20:10;;;;;;;13.95;8.33;;;;;;;3.97;93.98;98229.34;1718567;83;25680;-69
2022/12/06 10:23:14;;;;;;;8.40;6.22;;;;;;;3.95;93.54;98230.98;1718029;83;26144;-69
2022/12/06 10:25:48;;;;;;;12.00;8.10;;;;;;;3.89;93.25;98234.25;1718210;83;25754;-68
2022/12/06 10:28:20;;;;;;;15.43;8.98;;;;;;;3.86;93.67;98233.45;1717278;82;28185;-67
2022/12/06 10:30:56;;;;;;;15.05;9.73;;;;;;;3.85;93.91;98230.48;1721612;82;25745;-68
2022/12/06 10:33:40;;;;;;;16.10;8.33;;;;;;;3.79;93.78;98221.30;1712172;82;25824;-67
2022/12/06 10:36:09;;;;;;;14.75;8.55;;;;;;;3.74;94.14;98222.95;1711599;82;26096;-67
2022/12/06 10:38:54;;;;;;;16.85;9.80;;;;;;;3.74;94.39;98220.77;1715998;82;25708;-67
2022/12/06 10:41:32;;;;;;;13.78;7.90;;;;;;;3.76;94.41;98213.19;1717062;82;27469;-67
2022/12/06 10:44:10;;;;;;;13.88;8.70;;;;;;;3.78;94.42;98217.80;1713104;83;25509;-67
2022/12/06 10:47:06;;;;;;;14.85;8.70;;;;;;;3.80;94.25;98208.81;1713396;83;25730;-67
2022/12/06 10:49:50;;;;;;;17.40;9.30;;;;;;;3.78;93.94;98202.89;1717999;82;26101;-67
2022/12/06 10:52:42;;;;;;;21.30;12.50;;;;;;;3.78;94.11;98197.47;1716842;82;25721;-68
2022/12/06 10:55:14;;;;;;;21.93;14.98;;;;;;;3.81;94.20;98194.73;1717130;83;27417;-67
2022/12/06 10:57:55;;;;;;;17.37;10.70;;;;;;;3.87;94.45;98206.62;1717478;83;25663;-67
2022/12/06 11:00:27;;;;;;;17.92;9.15;;;;;;;3.91;94.26;98197.94;1714012;83;25748;-67
2022/12/06 11:03:12;;;;;;;14.90;7.75;;;;;;;3.90;93.62;98191.70;1717795;83;26114;-67
2022/12/06 11:05:54;;;;;;;13.05;7.70;;;;;;;3.86;93.71;98195.50;1716266;83;26050;-67
2022/12/06 11:08:43;;;;;;;16.67;9.73;;;;;;;3.84;93.82;98203.13;1714577;82;27811;-68
2022/12/06 11:11:21;;;;;;;15.23;8.70;;;;;;;3.84;94.17;98202.30;1714827;83;25629;-68
2022/12/06 11:14:05;;;;;;;16.15;8.90;;;;;;;3.84;94.18;98203.66;1692066;84;25494;-67
2022/12/06 11:16:46;;;;;;;22.42;11.40;;;;;;;3.85;94.33;98206.62;1706067;83;26146;-67
2022/12/06 11:19:33;;;;;;;21.33;10.82;;;;;;;3.86;94.12;98198.78;1710531;83;25455;-67
2022/12/06 11:22:13;;;;;;;11.75;6.08;;;;;;;3.89;94.05;98196.86;1710346;83;27943;-67
2022/12/06 11:25:17;;;;;;;16.97;9.15;;;;;;;3.88;92.94;98189.80;1666397;84;25908;-68
2022/12/06 11:27:57;;;;;;;18.45;10.15;;;;;;;3.89;93.00;98191.44;1668937;86;25673;-69
2022/12/06 11:30:24;;;;;;;17.50;8.53;;;;;;;3.94;93.03;98188.68;1669030;86;26109;-67
2022/12/06 11:32:51;;;;;;;18.42;9.63;;;;;;;3.96;93.11;98182.97;1668916;85;25750;-68
2022/12/06 11:35:25;;;;;;;15.48;8.68;;;;;;;3.99;93.15;98182.41;1668936;86;27667;-68
2022/12/06 11:37:59;;;;;;;18.02;10.63;;;;;;;3.97;92.94;98181.91;1668900;86;25566;-67
2022/12/06 11:40:40;;;;;;;16.73;8.53;;;;;;;3.93;92.74;98183.54;1669290;85;25682;-67
2022/12/06 11:43:11;;;;;;;18.92;10.48;;;;;;;3.91;92.97;98187.88;1668321;85;26061;-67
2022/12/06 11:45:42;;;;;;;11.55;6.83;;;;;;;3.89;92.86;98188.73;1669127;85;25833;-67
2022/12/06 11:48:18;;;;;;;11.27;6.37;;;;;;;3.85;92.12;98190.36;1669525;85;28393;-67
2022/12/06 11:50:48;;;;;;;9.83;5.85;;;;;;;3.77;91.76;98176.85;1669057;86;25718;-67
2022/12/06 11:53:38;;;;;;;15.87;9.67;;;;;;;3.75;91.83;98176.34;1668719;84;25549;-68
2022/12/06 11:56:27;;;;;;;12.88;7.60;;;;;;;3.75;92.20;98174.42;1666782;86;25977;-67
2022/12/06 11:59:19;;;;;;;14.25;8.70;;;;;;;3.78;92.05;98174.96;1666324;86;25751;-67
2022/12/06 12:01:49;;;;;;;17.05;7.87;;;;;;;3.81;92.35;98178.47;1676900;84;26842;-69
2022/12/06 12:04:33;;;;;;;15.00;8.05;;;;;;;3.76;92.25;98178.77;1690567;84;25685;-68
2022/12/06 12:07:10;;;;;;;18.12;9.28;;;;;;;3.73;92.15;98182.05;1686342;85;25642;-68
2022/12/06 12:09:53;;;;;;;14.90;8.58;;;;;;;3.74;92.45;98180.13;1686327;84;26052;-69
2022/12/06 12:12:24;;;;;;;21.37;10.63;;;;;;;3.70;92.30;98173.66;1686791;85;25166;-69
2022/12/06 12:14:55;;;;;;;16.42;9.85;;;;;;;3.70;92.49;98173.12;1686752;84;27451;-69